createdAt,value
2022-10-31T00:00:05.031Z,997.33
2022-10-31T00:00:15.551Z,997.33
2022-10-31T00:00:26.006Z,997.34
2022-10-31T00:00:36.559Z,997.34
2022-10-31T00:00:47.081Z,997.34
2022-10-31T00:00:57.583Z,997.34
2022-10-31T00:01:08.098Z,997.34
2022-10-31T00:01:18.499Z,997.34
2022-10-31T00:01:29.027Z,997.34
2022-10-31T00:01:39.516Z,997.34
2022-10-31T00:01:50.091Z,997.34
2022-10-31T00:02:00.650Z,997.34
2022-10-31T00:02:11.148Z,997.33
2022-10-31T00:02:21.605Z,997.33
2022-10-31T00:02:32.126Z,997.33
2022-10-31T00:02:42.652Z,997.33
2022-10-31T00:02:53.092Z,997.33
2022-10-31T00:03:03.786Z,997.34
2022-10-31T00:03:14.120Z,997.34
2022-10-31T00:03:24.627Z,997.34
2022-10-31T00:03:35.143Z,997.35
2022-10-31T00:03:45.648Z,997.35
2022-10-31T00:03:56.163Z,997.35
2022-10-31T00:04:06.676Z,997.36
2022-10-31T00:04:17.188Z,997.36
2022-10-31T00:04:27.703Z,997.36
2022-10-31T00:04:38.220Z,997.36
2022-10-31T00:04:48.716Z,997.37
2022-10-31T00:04:59.221Z,997.36
2022-10-31T00:05:09.733Z,997.36
2022-10-31T00:05:20.243Z,997.36
2022-10-31T00:05:30.761Z,997.36
2022-10-31T00:05:41.262Z,997.36
2022-10-31T00:05:51.779Z,997.36
2022-10-31T00:06:02.294Z,997.36
2022-10-31T00:06:12.819Z,997.37
2022-10-31T00:06:23.332Z,997.37
2022-10-31T00:06:33.824Z,997.37
2022-10-31T00:06:44.338Z,997.38
2022-10-31T00:06:54.848Z,997.38
2022-10-31T00:07:05.361Z,997.38
2022-10-31T00:07:15.868Z,997.39
2022-10-31T00:07:26.386Z,997.40
2022-10-31T00:07:36.895Z,997.39
2022-10-31T00:07:47.402Z,997.40
2022-10-31T00:07:57.915Z,997.40
2022-10-31T00:08:08.427Z,997.40
2022-10-31T00:08:18.984Z,997.40
2022-10-31T00:08:29.446Z,997.40
2022-10-31T00:08:39.970Z,997.40
2022-10-31T00:08:50.478Z,997.41
2022-10-31T00:09:00.986Z,997.41
2022-10-31T00:09:11.506Z,997.41
2022-10-31T00:09:22.012Z,997.42
2022-10-31T00:09:32.520Z,997.42
2022-10-31T00:09:43.030Z,997.42
2022-10-31T00:09:53.544Z,997.43
2022-10-31T00:10:04.056Z,997.43
2022-10-31T00:10:14.575Z,997.43
2022-10-31T00:10:25.093Z,997.44
2022-10-31T00:10:35.598Z,997.44
2022-10-31T00:10:46.115Z,997.44
2022-10-31T00:10:56.618Z,997.44
2022-10-31T00:11:07.134Z,997.44
2022-10-31T00:11:17.657Z,997.45
2022-10-31T00:11:28.162Z,997.45
2022-10-31T00:11:38.670Z,997.45
2022-10-31T00:11:49.186Z,997.45
2022-10-31T00:11:59.694Z,997.46
2022-10-31T00:12:10.205Z,997.46
2022-10-31T00:12:20.713Z,997.46
2022-10-31T00:12:31.232Z,997.46
2022-10-31T00:12:41.738Z,997.46
2022-10-31T00:12:52.313Z,997.47
2022-10-31T00:13:02.913Z,997.47
2022-10-31T00:13:13.357Z,997.47
2022-10-31T00:13:23.821Z,997.47
2022-10-31T00:13:34.309Z,997.47
2022-10-31T00:13:44.819Z,997.46
2022-10-31T00:13:55.350Z,997.46
2022-10-31T00:14:05.850Z,997.46
2022-10-31T00:14:16.359Z,997.46
2022-10-31T00:14:26.870Z,997.46
2022-10-31T00:14:37.378Z,997.46
2022-10-31T00:14:47.888Z,997.46
2022-10-31T00:14:58.400Z,997.46
2022-10-31T00:15:08.915Z,997.46
2022-10-31T00:15:19.420Z,997.46
2022-10-31T00:15:29.931Z,997.46
2022-10-31T00:15:40.450Z,997.46
2022-10-31T00:15:50.955Z,997.47
2022-10-31T00:16:01.471Z,997.47
2022-10-31T00:16:11.984Z,997.47
2022-10-31T00:16:22.525Z,997.47
2022-10-31T00:16:33.000Z,997.47
2022-10-31T00:16:43.523Z,997.47
2022-10-31T00:16:54.021Z,997.47
2022-10-31T00:17:04.532Z,997.48
2022-10-31T00:17:15.049Z,997.48
2022-10-31T00:17:25.560Z,997.48
2022-10-31T00:17:36.065Z,997.48
2022-10-31T00:17:46.576Z,997.48
2022-10-31T00:17:57.362Z,997.48
2022-10-31T00:18:07.599Z,997.48
2022-10-31T00:18:18.107Z,997.48
2022-10-31T00:18:28.623Z,997.48
2022-10-31T00:18:39.125Z,997.48
2022-10-31T00:18:49.642Z,997.48
2022-10-31T00:19:00.162Z,997.48
2022-10-31T00:19:10.665Z,997.49
2022-10-31T00:19:21.181Z,997.49
2022-10-31T00:19:31.696Z,997.49
2022-10-31T00:19:42.194Z,997.50
2022-10-31T00:19:52.709Z,997.50
2022-10-31T00:20:03.238Z,997.50
2022-10-31T00:20:13.745Z,997.50
2022-10-31T00:20:24.248Z,997.50
2022-10-31T00:20:34.764Z,997.51
2022-10-31T00:20:45.268Z,997.51
2022-10-31T00:20:55.779Z,997.52
2022-10-31T00:21:06.293Z,997.52
2022-10-31T00:21:16.803Z,997.53
2022-10-31T00:21:27.312Z,997.53
2022-10-31T00:21:37.824Z,997.54
2022-10-31T00:21:48.333Z,997.54
2022-10-31T00:21:58.844Z,997.53
2022-10-31T00:22:09.356Z,997.53
2022-10-31T00:22:19.866Z,997.53
2022-10-31T00:22:30.377Z,997.53
2022-10-31T00:22:40.890Z,997.53
2022-10-31T00:22:51.397Z,997.53
2022-10-31T00:23:01.924Z,997.52
2022-10-31T00:23:12.420Z,997.52
2022-10-31T00:23:22.931Z,997.53
2022-10-31T00:23:33.444Z,997.54
2022-10-31T00:23:44.057Z,997.54
2022-10-31T00:23:54.496Z,997.55
2022-10-31T00:24:04.975Z,997.55
2022-10-31T00:24:15.497Z,997.55
2022-10-31T00:24:26.006Z,997.55
2022-10-31T00:24:36.499Z,997.56
2022-10-31T00:24:47.016Z,997.56
2022-10-31T00:24:57.522Z,997.56
2022-10-31T00:25:08.039Z,997.57
2022-10-31T00:25:18.553Z,997.57
2022-10-31T00:25:29.050Z,997.58
2022-10-31T00:25:39.586Z,997.58
2022-10-31T00:25:50.071Z,997.58
2022-10-31T00:26:00.585Z,997.57
2022-10-31T00:26:11.094Z,997.57
2022-10-31T00:26:21.606Z,997.57
2022-10-31T00:26:32.111Z,997.57
2022-10-31T00:26:42.621Z,997.57
2022-10-31T00:26:53.134Z,997.56
2022-10-31T00:27:03.638Z,997.56
2022-10-31T00:27:14.155Z,997.56
2022-10-31T00:27:24.664Z,997.57
2022-10-31T00:27:35.180Z,997.57
2022-10-31T00:27:45.691Z,997.57
2022-10-31T00:27:56.442Z,997.58
2022-10-31T00:28:06.760Z,997.58
2022-10-31T00:28:17.226Z,997.58
2022-10-31T00:28:27.725Z,997.59
2022-10-31T00:28:38.240Z,997.59
2022-10-31T00:28:48.748Z,997.59
2022-10-31T00:28:59.273Z,997.59
2022-10-31T00:29:09.782Z,997.59
2022-10-31T00:29:20.286Z,997.59
2022-10-31T00:29:30.796Z,997.59
2022-10-31T00:29:41.304Z,997.59
2022-10-31T00:29:51.819Z,997.59
2022-10-31T00:30:02.334Z,997.60
2022-10-31T00:30:12.836Z,997.60
2022-10-31T00:30:23.350Z,997.61
2022-10-31T00:30:33.858Z,997.61
2022-10-31T00:30:44.385Z,997.62
2022-10-31T00:30:54.873Z,997.62
2022-10-31T00:31:05.388Z,997.62
2022-10-31T00:31:15.897Z,997.63
2022-10-31T00:31:26.397Z,997.63
2022-10-31T00:31:36.912Z,997.63
2022-10-31T00:31:47.418Z,997.63
2022-10-31T00:31:57.933Z,997.63
2022-10-31T00:32:08.447Z,997.62
2022-10-31T00:32:18.960Z,997.62
2022-10-31T00:32:29.475Z,997.62
2022-10-31T00:32:39.981Z,997.61
2022-10-31T00:32:50.491Z,997.62
2022-10-31T00:33:01.447Z,997.62
2022-10-31T00:33:11.511Z,997.62
2022-10-31T00:33:22.028Z,997.62
2022-10-31T00:33:32.536Z,997.62
2022-10-31T00:33:43.042Z,997.63
2022-10-31T00:33:53.551Z,997.63
2022-10-31T00:34:04.066Z,997.63
2022-10-31T00:34:14.604Z,997.63
2022-10-31T00:34:25.086Z,997.63
2022-10-31T00:34:35.602Z,997.63
2022-10-31T00:34:46.110Z,997.63
2022-10-31T00:34:56.630Z,997.62
2022-10-31T00:35:07.130Z,997.62
2022-10-31T00:35:17.642Z,997.62
2022-10-31T00:35:28.154Z,997.61
2022-10-31T00:35:38.666Z,997.61
2022-10-31T00:35:49.180Z,997.61
2022-10-31T00:35:59.688Z,997.61
2022-10-31T00:36:10.219Z,997.62
2022-10-31T00:36:20.708Z,997.63
2022-10-31T00:36:31.209Z,997.63
2022-10-31T00:36:41.729Z,997.63
2022-10-31T00:36:52.239Z,997.63
2022-10-31T00:37:02.751Z,997.63
2022-10-31T00:37:13.255Z,997.63
2022-10-31T00:37:23.769Z,997.62
2022-10-31T00:37:34.288Z,997.62
2022-10-31T00:37:44.796Z,997.61
2022-10-31T00:37:55.303Z,997.61
2022-10-31T00:38:05.824Z,997.61
2022-10-31T00:38:16.327Z,997.61
2022-10-31T00:38:26.834Z,997.61
2022-10-31T00:38:37.348Z,997.61
2022-10-31T00:38:47.865Z,997.62
2022-10-31T00:38:58.369Z,997.62
2022-10-31T00:39:08.878Z,997.62
2022-10-31T00:39:19.387Z,997.62
2022-10-31T00:39:29.897Z,997.63
2022-10-31T00:39:40.410Z,997.63
2022-10-31T00:39:50.924Z,997.63
2022-10-31T00:40:01.433Z,997.62
2022-10-31T00:40:11.945Z,997.62
2022-10-31T00:40:22.472Z,997.61
2022-10-31T00:40:32.973Z,997.62
2022-10-31T00:40:43.490Z,997.62
2022-10-31T00:40:53.997Z,997.61
2022-10-31T00:41:04.542Z,997.62
2022-10-31T00:41:15.025Z,997.61
2022-10-31T00:41:25.525Z,997.61
2022-10-31T00:41:36.052Z,997.61
2022-10-31T00:41:46.556Z,997.61
2022-10-31T00:41:57.062Z,997.61
2022-10-31T00:42:07.569Z,997.61
2022-10-31T00:42:18.088Z,997.61
2022-10-31T00:42:28.594Z,997.61
2022-10-31T00:42:39.108Z,997.61
2022-10-31T00:42:49.686Z,997.61
2022-10-31T00:43:00.482Z,997.62
2022-10-31T00:43:21.157Z,997.62
2022-10-31T00:43:31.668Z,997.62
2022-10-31T00:43:42.178Z,997.62
2022-10-31T00:43:52.679Z,997.62
2022-10-31T00:44:03.190Z,997.62
2022-10-31T00:44:13.700Z,997.62
2022-10-31T00:44:24.225Z,997.62
2022-10-31T00:44:34.722Z,997.62
2022-10-31T00:44:45.239Z,997.62
2022-10-31T00:44:55.741Z,997.62
2022-10-31T00:45:06.261Z,997.62
2022-10-31T00:45:16.791Z,997.61
2022-10-31T00:45:27.275Z,997.62
2022-10-31T00:45:37.784Z,997.62
2022-10-31T00:45:48.301Z,997.62
2022-10-31T00:45:58.811Z,997.62
2022-10-31T00:46:09.356Z,997.62
2022-10-31T00:46:19.838Z,997.62
2022-10-31T00:46:30.345Z,997.62
2022-10-31T00:46:40.858Z,997.63
2022-10-31T00:46:51.370Z,997.63
2022-10-31T00:47:01.883Z,997.63
2022-10-31T00:47:12.396Z,997.64
2022-10-31T00:47:22.901Z,997.64
2022-10-31T00:47:33.410Z,997.64
2022-10-31T00:47:43.918Z,997.64
2022-10-31T00:47:54.468Z,997.64
2022-10-31T00:48:04.946Z,997.64
2022-10-31T00:48:15.455Z,997.64
2022-10-31T00:48:25.963Z,997.64
2022-10-31T00:48:36.467Z,997.64
2022-10-31T00:48:46.977Z,997.64
2022-10-31T00:48:57.492Z,997.64
2022-10-31T00:49:08.007Z,997.64
2022-10-31T00:49:18.521Z,997.64
2022-10-31T00:49:29.023Z,997.64
2022-10-31T00:49:39.533Z,997.64
2022-10-31T00:49:50.046Z,997.64
2022-10-31T00:50:00.556Z,997.64
2022-10-31T00:50:11.072Z,997.64
2022-10-31T00:50:21.586Z,997.64
2022-10-31T00:50:32.099Z,997.64
2022-10-31T00:50:42.612Z,997.64
2022-10-31T00:50:53.118Z,997.64
2022-10-31T00:51:03.628Z,997.65
2022-10-31T00:51:14.145Z,997.65
2022-10-31T00:51:24.670Z,997.66
2022-10-31T00:51:35.166Z,997.66
2022-10-31T00:51:45.682Z,997.67
2022-10-31T00:51:56.186Z,997.67
2022-10-31T00:52:06.711Z,997.67
2022-10-31T00:52:17.211Z,997.67
2022-10-31T00:52:27.722Z,997.67
2022-10-31T00:52:38.228Z,997.67
2022-10-31T00:52:48.766Z,997.67
2022-10-31T00:52:59.259Z,997.67
2022-10-31T00:53:09.757Z,997.68
2022-10-31T00:53:20.278Z,997.68
2022-10-31T00:53:30.824Z,997.68
2022-10-31T00:53:41.309Z,997.69
2022-10-31T00:53:51.803Z,997.69
2022-10-31T00:54:02.315Z,997.69
2022-10-31T00:54:12.831Z,997.69
2022-10-31T00:54:23.338Z,997.69
2022-10-31T00:54:33.846Z,997.69
2022-10-31T00:54:44.363Z,997.68
2022-10-31T00:54:54.871Z,997.68
2022-10-31T00:55:05.378Z,997.68
2022-10-31T00:55:15.888Z,997.68
2022-10-31T00:55:26.403Z,997.68
2022-10-31T00:55:36.911Z,997.69
2022-10-31T00:55:47.441Z,997.69
2022-10-31T00:55:57.933Z,997.69
2022-10-31T00:56:08.448Z,997.69
2022-10-31T00:56:18.968Z,997.70
2022-10-31T00:56:29.480Z,997.69
2022-10-31T00:56:39.974Z,997.69
2022-10-31T00:56:50.488Z,997.69
2022-10-31T00:57:01.004Z,997.69
2022-10-31T00:57:11.505Z,997.69
2022-10-31T00:57:22.020Z,997.68
2022-10-31T00:57:32.526Z,997.68
2022-10-31T00:57:43.031Z,997.68
2022-10-31T00:57:53.587Z,997.68
2022-10-31T00:58:04.633Z,997.68
2022-10-31T00:58:25.072Z,997.69
2022-10-31T00:58:35.624Z,997.70
2022-10-31T00:58:46.091Z,997.70
2022-10-31T00:58:56.603Z,997.70
2022-10-31T00:59:07.115Z,997.71
2022-10-31T00:59:17.621Z,997.71
2022-10-31T00:59:28.132Z,997.71
2022-10-31T00:59:38.646Z,997.71
2022-10-31T00:59:49.158Z,997.71
2022-10-31T00:59:59.683Z,997.71
2022-10-31T01:00:10.193Z,997.71
2022-10-31T01:00:20.693Z,997.71
2022-10-31T01:00:31.215Z,997.71
2022-10-31T01:00:41.727Z,997.71
2022-10-31T01:00:52.415Z,997.71
2022-10-31T01:01:02.827Z,997.71
2022-10-31T01:01:13.417Z,997.71
2022-10-31T01:01:23.899Z,997.71
2022-10-31T01:01:34.436Z,997.72
2022-10-31T01:01:44.862Z,997.72
2022-10-31T01:01:55.488Z,997.72
2022-10-31T01:02:06.048Z,997.72
2022-10-31T01:02:16.510Z,997.72
2022-10-31T01:02:26.939Z,997.73
2022-10-31T01:02:37.543Z,997.73
2022-10-31T01:02:48.008Z,997.73
2022-10-31T01:02:58.675Z,997.73
2022-10-31T01:03:08.879Z,997.73
2022-10-31T01:03:19.394Z,997.73
2022-10-31T01:03:29.913Z,997.72
2022-10-31T01:03:40.435Z,997.73
2022-10-31T01:03:50.933Z,997.73
2022-10-31T01:04:01.443Z,997.73
2022-10-31T01:04:11.960Z,997.73
2022-10-31T01:04:22.468Z,997.74
2022-10-31T01:04:32.987Z,997.74
2022-10-31T01:04:43.486Z,997.74
2022-10-31T01:04:53.998Z,997.74
2022-10-31T01:05:04.553Z,997.74
2022-10-31T01:05:15.013Z,997.75
2022-10-31T01:05:25.532Z,997.75
2022-10-31T01:05:36.043Z,997.75
2022-10-31T01:05:46.562Z,997.75
2022-10-31T01:05:57.072Z,997.76
2022-10-31T01:06:07.606Z,997.76
2022-10-31T01:06:18.088Z,997.75
2022-10-31T01:06:28.596Z,997.76
2022-10-31T01:06:39.110Z,997.76
2022-10-31T01:06:49.632Z,997.76
2022-10-31T01:07:00.123Z,997.76
2022-10-31T01:07:10.648Z,997.75
2022-10-31T01:07:21.159Z,997.76
2022-10-31T01:07:31.653Z,997.75
2022-10-31T01:07:42.172Z,997.75
2022-10-31T01:07:52.678Z,997.75
2022-10-31T01:08:03.189Z,997.75
2022-10-31T01:08:13.699Z,997.75
2022-10-31T01:08:24.206Z,997.74
2022-10-31T01:08:34.718Z,997.74
2022-10-31T01:08:45.227Z,997.74
2022-10-31T01:08:55.742Z,997.74
2022-10-31T01:09:06.247Z,997.74
2022-10-31T01:09:16.766Z,997.74
2022-10-31T01:09:27.275Z,997.75
2022-10-31T01:09:37.782Z,997.74
2022-10-31T01:09:48.297Z,997.75
2022-10-31T01:09:58.808Z,997.75
2022-10-31T01:10:09.322Z,997.75
2022-10-31T01:10:19.838Z,997.75
2022-10-31T01:10:30.341Z,997.75
2022-10-31T01:10:40.850Z,997.75
2022-10-31T01:10:51.367Z,997.75
2022-10-31T01:11:01.874Z,997.75
2022-10-31T01:11:12.411Z,997.75
2022-10-31T01:11:22.898Z,997.75
2022-10-31T01:11:33.412Z,997.75
2022-10-31T01:11:43.917Z,997.75
2022-10-31T01:11:54.429Z,997.76
2022-10-31T01:12:04.941Z,997.76
2022-10-31T01:12:15.447Z,997.76
2022-10-31T01:12:25.962Z,997.77
2022-10-31T01:12:36.478Z,997.77
2022-10-31T01:12:46.984Z,997.77
2022-10-31T01:12:57.703Z,997.77
2022-10-31T01:13:08.032Z,997.78
2022-10-31T01:13:18.550Z,997.78
2022-10-31T01:13:29.028Z,997.78
2022-10-31T01:13:39.540Z,997.78
2022-10-31T01:13:50.057Z,997.78
2022-10-31T01:14:00.569Z,997.78
2022-10-31T01:14:11.071Z,997.78
2022-10-31T01:14:21.577Z,997.79
2022-10-31T01:14:32.095Z,997.79
2022-10-31T01:14:42.610Z,997.79
2022-10-31T01:14:53.108Z,997.80
2022-10-31T01:15:03.633Z,997.81
2022-10-31T01:15:14.143Z,997.81
2022-10-31T01:15:24.653Z,997.82
2022-10-31T01:15:35.162Z,997.82
2022-10-31T01:15:45.673Z,997.82
2022-10-31T01:15:56.185Z,997.82
2022-10-31T01:16:06.714Z,997.82
2022-10-31T01:16:17.210Z,997.82
2022-10-31T01:16:27.756Z,997.82
2022-10-31T01:16:38.232Z,997.83
2022-10-31T01:16:48.743Z,997.83
2022-10-31T01:16:59.257Z,997.83
2022-10-31T01:17:09.770Z,997.83
2022-10-31T01:17:20.286Z,997.83
2022-10-31T01:17:30.801Z,997.83
2022-10-31T01:17:41.308Z,997.82
2022-10-31T01:17:51.826Z,997.83
2022-10-31T01:18:02.715Z,997.82
2022-10-31T01:18:12.853Z,997.81
2022-10-31T01:18:23.362Z,997.81
2022-10-31T01:18:33.878Z,997.81
2022-10-31T01:18:44.392Z,997.80
2022-10-31T01:18:54.899Z,997.81
2022-10-31T01:19:05.402Z,997.81
2022-10-31T01:19:15.913Z,997.81
2022-10-31T01:19:26.435Z,997.81
2022-10-31T01:19:36.939Z,997.81
2022-10-31T01:19:47.454Z,997.81
2022-10-31T01:19:57.963Z,997.81
2022-10-31T01:20:08.473Z,997.81
2022-10-31T01:20:18.990Z,997.80
2022-10-31T01:20:29.496Z,997.80
2022-10-31T01:20:40.009Z,997.79
2022-10-31T01:20:50.512Z,997.79
2022-10-31T01:21:01.035Z,997.78
2022-10-31T01:21:11.535Z,997.79
2022-10-31T01:21:22.052Z,997.78
2022-10-31T01:21:32.585Z,997.78
2022-10-31T01:21:43.069Z,997.78
2022-10-31T01:21:53.582Z,997.78
2022-10-31T01:22:04.094Z,997.78
2022-10-31T01:22:14.603Z,997.77
2022-10-31T01:22:25.116Z,997.78
2022-10-31T01:22:35.627Z,997.77
2022-10-31T01:22:46.138Z,997.77
2022-10-31T01:22:56.672Z,997.77
2022-10-31T01:23:07.170Z,997.77
2022-10-31T01:23:17.666Z,997.77
2022-10-31T01:23:28.172Z,997.78
2022-10-31T01:23:38.700Z,997.78
2022-10-31T01:23:49.195Z,997.78
2022-10-31T01:23:59.702Z,997.78
2022-10-31T01:24:10.217Z,997.78
2022-10-31T01:24:20.730Z,997.78
2022-10-31T01:24:31.258Z,997.78
2022-10-31T01:24:41.748Z,997.78
2022-10-31T01:24:52.262Z,997.78
2022-10-31T01:25:02.774Z,997.78
2022-10-31T01:25:13.282Z,997.78
2022-10-31T01:25:23.798Z,997.78
2022-10-31T01:25:34.304Z,997.78
2022-10-31T01:25:44.813Z,997.78
2022-10-31T01:25:55.324Z,997.79
2022-10-31T01:26:05.838Z,997.79
2022-10-31T01:26:16.347Z,997.79
2022-10-31T01:26:26.854Z,997.79
2022-10-31T01:26:37.377Z,997.79
2022-10-31T01:26:47.899Z,997.79
2022-10-31T01:26:58.384Z,997.79
2022-10-31T01:27:08.904Z,997.79
2022-10-31T01:27:19.416Z,997.79
2022-10-31T01:27:29.918Z,997.79
2022-10-31T01:27:40.461Z,997.79
2022-10-31T01:27:50.936Z,997.79
2022-10-31T01:28:01.804Z,997.80
2022-10-31T01:28:12.024Z,997.80
2022-10-31T01:28:22.513Z,997.80
2022-10-31T01:28:32.984Z,997.80
2022-10-31T01:28:43.497Z,997.80
2022-10-31T01:28:54.005Z,997.79
2022-10-31T01:29:04.520Z,997.79
2022-10-31T01:29:15.034Z,997.79
2022-10-31T01:29:25.543Z,997.79
2022-10-31T01:29:36.052Z,997.79
2022-10-31T01:29:46.567Z,997.79
2022-10-31T01:29:57.083Z,997.79
2022-10-31T01:30:07.588Z,997.79
2022-10-31T01:30:18.114Z,997.79
2022-10-31T01:30:28.610Z,997.79
2022-10-31T01:30:39.121Z,997.78
2022-10-31T01:30:49.623Z,997.78
2022-10-31T01:31:00.131Z,997.78
2022-10-31T01:31:10.644Z,997.77
2022-10-31T01:31:21.154Z,997.77
2022-10-31T01:31:31.675Z,997.77
2022-10-31T01:31:42.177Z,997.77
2022-10-31T01:31:52.689Z,997.76
2022-10-31T01:32:03.198Z,997.77
2022-10-31T01:32:13.707Z,997.76
2022-10-31T01:32:24.219Z,997.76
2022-10-31T01:32:34.746Z,997.76
2022-10-31T01:32:45.256Z,997.76
2022-10-31T01:32:55.764Z,997.76
2022-10-31T01:33:06.260Z,997.77
2022-10-31T01:33:16.769Z,997.77
2022-10-31T01:33:27.281Z,997.77
2022-10-31T01:33:37.802Z,997.78
2022-10-31T01:33:48.305Z,997.78
2022-10-31T01:33:58.834Z,997.78
2022-10-31T01:34:09.329Z,997.79
2022-10-31T01:34:19.840Z,997.79
2022-10-31T01:34:30.347Z,997.80
2022-10-31T01:34:40.858Z,997.80
2022-10-31T01:34:51.364Z,997.80
2022-10-31T01:35:01.873Z,997.79
2022-10-31T01:35:12.384Z,997.79
2022-10-31T01:35:22.919Z,997.79
2022-10-31T01:35:33.407Z,997.78
2022-10-31T01:35:43.916Z,997.78
2022-10-31T01:35:54.437Z,997.78
2022-10-31T01:36:04.938Z,997.78
2022-10-31T01:36:15.452Z,997.78
2022-10-31T01:36:25.957Z,997.78
2022-10-31T01:36:36.475Z,997.78
2022-10-31T01:36:46.982Z,997.79
2022-10-31T01:36:57.491Z,997.79
2022-10-31T01:37:08.004Z,997.79
2022-10-31T01:37:18.521Z,997.79
2022-10-31T01:37:29.020Z,997.79
2022-10-31T01:37:39.538Z,997.79
2022-10-31T01:37:50.047Z,997.79
2022-10-31T01:38:00.559Z,997.78
2022-10-31T01:38:11.067Z,997.78
2022-10-31T01:38:21.588Z,997.78
2022-10-31T01:38:32.096Z,997.78
2022-10-31T01:38:42.599Z,997.79
2022-10-31T01:38:53.107Z,997.79
2022-10-31T01:39:03.621Z,997.79
2022-10-31T01:39:14.146Z,997.79
2022-10-31T01:39:24.631Z,997.80
2022-10-31T01:39:35.153Z,997.80
2022-10-31T01:39:45.654Z,997.80
2022-10-31T01:39:56.165Z,997.80
2022-10-31T01:40:06.688Z,997.80
2022-10-31T01:40:17.186Z,997.80
2022-10-31T01:40:27.702Z,997.81
2022-10-31T01:40:38.208Z,997.80
2022-10-31T01:40:48.730Z,997.80
2022-10-31T01:40:59.228Z,997.80
2022-10-31T01:41:09.746Z,997.81
2022-10-31T01:41:20.269Z,997.81
2022-10-31T01:41:30.783Z,997.81
2022-10-31T01:41:41.270Z,997.82
2022-10-31T01:41:51.787Z,997.82
2022-10-31T01:42:02.289Z,997.82
2022-10-31T01:42:12.806Z,997.83
2022-10-31T01:42:23.314Z,997.83
2022-10-31T01:42:33.833Z,997.83
2022-10-31T01:42:44.346Z,997.83
2022-10-31T01:42:54.855Z,997.83
2022-10-31T01:43:05.366Z,997.83
2022-10-31T01:43:15.954Z,997.83
2022-10-31T01:43:26.393Z,997.83
2022-10-31T01:43:36.900Z,997.82
2022-10-31T01:43:47.411Z,997.82
2022-10-31T01:43:57.923Z,997.82
2022-10-31T01:44:08.432Z,997.81
2022-10-31T01:44:18.971Z,997.81
2022-10-31T01:44:29.445Z,997.81
2022-10-31T01:44:39.963Z,997.81
2022-10-31T01:44:50.477Z,997.80
2022-10-31T01:45:00.984Z,997.80
2022-10-31T01:45:11.495Z,997.80
2022-10-31T01:45:22.010Z,997.80
2022-10-31T01:45:32.510Z,997.80
2022-10-31T01:45:43.026Z,997.79
2022-10-31T01:45:53.534Z,997.79
2022-10-31T01:46:04.049Z,997.79
2022-10-31T01:46:14.554Z,997.79
2022-10-31T01:46:25.069Z,997.79
2022-10-31T01:46:35.586Z,997.79
2022-10-31T01:46:46.094Z,997.79
2022-10-31T01:46:56.608Z,997.79
2022-10-31T01:47:07.116Z,997.79
2022-10-31T01:47:17.637Z,997.79
2022-10-31T01:47:28.140Z,997.79
2022-10-31T01:47:38.656Z,997.79
2022-10-31T01:47:49.178Z,997.79
2022-10-31T01:47:59.900Z,997.79
2022-10-31T01:48:10.189Z,997.79
2022-10-31T01:48:20.704Z,997.79
2022-10-31T01:48:31.206Z,997.79
2022-10-31T01:48:43.355Z,997.79
2022-10-31T01:48:52.224Z,997.79
2022-10-31T01:49:02.734Z,997.80
2022-10-31T01:49:13.259Z,997.79
2022-10-31T01:49:23.789Z,997.80
2022-10-31T01:49:34.277Z,997.80
2022-10-31T01:49:44.795Z,997.79
2022-10-31T01:49:55.298Z,997.79
2022-10-31T01:50:05.808Z,997.79
2022-10-31T01:50:16.325Z,997.78
2022-10-31T01:50:26.824Z,997.78
2022-10-31T01:50:37.334Z,997.78
2022-10-31T01:50:47.844Z,997.77
2022-10-31T01:50:58.358Z,997.77
2022-10-31T01:51:08.867Z,997.76
2022-10-31T01:51:19.382Z,997.76
2022-10-31T01:51:29.908Z,997.75
2022-10-31T01:51:40.398Z,997.75
2022-10-31T01:51:50.946Z,997.75
2022-10-31T01:52:01.424Z,997.75
2022-10-31T01:52:11.938Z,997.75
2022-10-31T01:52:22.448Z,997.75
2022-10-31T01:52:32.961Z,997.74
2022-10-31T01:52:43.474Z,997.74
2022-10-31T01:52:53.981Z,997.73
2022-10-31T01:53:04.494Z,997.73
2022-10-31T01:53:15.003Z,997.72
2022-10-31T01:53:26.980Z,997.73
2022-10-31T01:53:36.018Z,997.73
2022-10-31T01:53:46.539Z,997.72
2022-10-31T01:53:57.042Z,997.72
2022-10-31T01:54:07.562Z,997.72
2022-10-31T01:54:18.061Z,997.72
2022-10-31T01:54:28.588Z,997.72
2022-10-31T01:54:39.099Z,997.72
2022-10-31T01:54:49.606Z,997.73
2022-10-31T01:55:00.141Z,997.73
2022-10-31T01:55:10.636Z,997.73
2022-10-31T01:55:21.130Z,997.73
2022-10-31T01:55:31.651Z,997.73
2022-10-31T01:55:42.155Z,997.74
2022-10-31T01:55:52.667Z,997.74
2022-10-31T01:56:03.173Z,997.74
2022-10-31T01:56:13.686Z,997.74
2022-10-31T01:56:24.194Z,997.75
2022-10-31T01:56:34.737Z,997.75
2022-10-31T01:56:45.214Z,997.75
2022-10-31T01:56:55.778Z,997.75
2022-10-31T01:57:06.241Z,997.75
2022-10-31T01:57:16.755Z,997.75
2022-10-31T01:57:27.258Z,997.76
2022-10-31T01:57:37.770Z,997.76
2022-10-31T01:57:48.283Z,997.76
2022-10-31T01:57:59.258Z,997.76
2022-10-31T01:58:09.402Z,997.76
2022-10-31T01:58:30.327Z,997.76
2022-10-31T01:58:40.838Z,997.77
2022-10-31T01:58:51.342Z,997.77
2022-10-31T01:59:01.863Z,997.77
2022-10-31T01:59:12.368Z,997.77
2022-10-31T01:59:22.879Z,997.77
2022-10-31T01:59:33.388Z,997.77
2022-10-31T01:59:43.907Z,997.77
2022-10-31T01:59:54.416Z,997.76
2022-10-31T02:00:04.929Z,997.76
2022-10-31T02:00:15.465Z,997.76
2022-10-31T02:00:25.946Z,997.76
2022-10-31T02:00:36.476Z,997.76
2022-10-31T02:00:47.074Z,997.76
2022-10-31T02:00:59.577Z,997.76
2022-10-31T02:01:08.362Z,997.76
2022-10-31T02:01:18.664Z,997.76
2022-10-31T02:01:29.218Z,997.76
2022-10-31T02:01:39.707Z,997.77
2022-10-31T02:01:50.208Z,997.77
2022-10-31T02:02:00.678Z,997.77
2022-10-31T02:02:11.233Z,997.77
2022-10-31T02:02:21.787Z,997.78
2022-10-31T02:02:32.312Z,997.78
2022-10-31T02:02:42.755Z,997.78
2022-10-31T02:02:53.115Z,997.78
2022-10-31T02:03:03.903Z,997.79
2022-10-31T02:03:14.135Z,997.79
2022-10-31T02:03:24.636Z,997.80
2022-10-31T02:03:35.156Z,997.80
2022-10-31T02:03:45.660Z,997.80
2022-10-31T02:03:56.176Z,997.80
2022-10-31T02:04:06.683Z,997.81
2022-10-31T02:04:17.202Z,997.81
2022-10-31T02:04:27.712Z,997.81
2022-10-31T02:04:38.228Z,997.81
2022-10-31T02:04:48.746Z,997.82
2022-10-31T02:04:59.251Z,997.82
2022-10-31T02:05:09.768Z,997.82
2022-10-31T02:05:20.301Z,997.82
2022-10-31T02:05:30.787Z,997.83
2022-10-31T02:05:41.302Z,997.83
2022-10-31T02:05:51.811Z,997.83
2022-10-31T02:06:02.325Z,997.83
2022-10-31T02:06:12.841Z,997.83
2022-10-31T02:06:23.357Z,997.84
2022-10-31T02:06:33.854Z,997.84
2022-10-31T02:06:44.374Z,997.84
2022-10-31T02:06:54.877Z,997.85
2022-10-31T02:07:05.390Z,997.86
2022-10-31T02:07:15.899Z,997.85
2022-10-31T02:07:26.415Z,997.86
2022-10-31T02:07:36.925Z,997.86
2022-10-31T02:07:47.436Z,997.87
2022-10-31T02:07:57.946Z,997.87
2022-10-31T02:08:08.467Z,997.88
2022-10-31T02:08:18.973Z,997.88
2022-10-31T02:08:29.486Z,997.88
2022-10-31T02:08:39.993Z,997.88
2022-10-31T02:08:50.518Z,997.89
2022-10-31T02:09:01.019Z,997.89
2022-10-31T02:09:11.533Z,997.89
2022-10-31T02:09:22.048Z,997.89
2022-10-31T02:09:32.556Z,997.89
2022-10-31T02:09:43.059Z,997.89
2022-10-31T02:09:53.576Z,997.89
2022-10-31T02:10:04.092Z,997.89
2022-10-31T02:10:14.627Z,997.90
2022-10-31T02:10:25.114Z,997.90
2022-10-31T02:10:35.619Z,997.90
2022-10-31T02:10:46.126Z,997.90
2022-10-31T02:10:56.648Z,997.90
2022-10-31T02:11:07.157Z,997.90
2022-10-31T02:11:17.670Z,997.91
2022-10-31T02:11:28.185Z,997.91
2022-10-31T02:11:38.719Z,997.91